This is the latest recevied weather packets stored in our database for station/object SP9INZ-13. If no packets are shown the sender has not sent any weather packets the latest 10 day(s).
| Time | Temp. | Humidity | Pressure | Rain* | Wind** | Luminosity | Snow |
|---|---|---|---|---|---|---|---|
| 1777343010 | 6.11° C | 69% | 1030.3 hPa | - | - | - | - |
| 1777342051 | 6.67° C | 66% | 1030.5 hPa | - | - | - | - |
| 1777341095 | 9.44° C | 55% | 1030 hPa | - | - | - | - |
| 1777340135 | 7.22° C | 60% | 1031.1 hPa | - | - | - | - |
| 1777339178 | 8.89° C | 57% | 1030.4 hPa | - | - | - | - |
| 1777338219 | 11.11° C | 51% | 1029.6 hPa | - | - | - | - |
| 1777337261 | 11.67° C | 45% | 1030.1 hPa | - | - | - | - |
| 1777336304 | 10° C | 49% | 1030.9 hPa | - | - | - | - |
| 1777335345 | 11.11° C | 46% | 1030.5 hPa | - | - | - | - |
| 1777334387 | 11.67° C | 46% | 1030 hPa | - | - | - | - |
| 1777333429 | 10° C | 49% | 1031.1 hPa | - | - | - | - |
| 1777332472 | 10.56° C | 47% | 1030.7 hPa | - | - | - | - |
| 1777331513 | 10.56° C | 48% | 1030.6 hPa | - | - | - | - |
| 1777330555 | 9.44° C | 50% | 1031.1 hPa | - | - | - | - |
| 1777329598 | 10° C | 50% | 1030.8 hPa | - | - | - | - |
| 1777328639 | 9.44° C | 51% | 1031.2 hPa | - | - | - | - |
| 1777327681 | 10.56° C | 48% | 1030.8 hPa | - | - | - | - |
| 1777326723 | 10° C | 50% | 1031.1 hPa | - | - | - | - |
| 1777325765 | 10.56° C | 48% | 1031 hPa | - | - | - | - |
| 1777324807 | 10.56° C | 50% | 1031 hPa | - | - | - | - |
| 1777323850 | 11.11° C | 48% | 1030.9 hPa | - | - | - | - |
| 1777322891 | 12.22° C | 44% | 1030.5 hPa | - | - | - | - |
| 1777321934 | 12.22° C | 44% | 1030.4 hPa | - | - | - | - |
| 1777320975 | 11.11° C | 45% | 1031.1 hPa | - | - | - | - |
| 1777320017 | 11.67° C | 44% | 1031 hPa | - | - | - | - |
* Rain since midnight (hover to see other rain measurements)
** Current wind speed in m/s (hover to see current wind gust speed)